createdAt,value
2018-06-22T00:00:21.639Z,65.50
2018-06-22T00:05:24.433Z,66.20
2018-06-22T00:10:27.007Z,67.10
2018-06-22T00:15:29.594Z,68.00
2018-06-22T00:20:32.178Z,68.40
2018-06-22T00:25:34.767Z,69.40
2018-06-22T00:30:37.346Z,70.10
2018-06-22T00:35:39.926Z,70.00
2018-06-22T00:40:42.502Z,70.50
2018-06-22T00:45:45.276Z,70.90
2018-06-22T00:50:47.855Z,71.50
2018-06-22T00:55:50.442Z,71.60
2018-06-22T01:00:53.166Z,73.80
2018-06-22T01:05:55.747Z,77.00
2018-06-22T01:10:58.339Z,79.40
2018-06-22T01:16:00.921Z,80.00
2018-06-22T01:21:03.539Z,81.70
2018-06-22T01:26:06.147Z,83.10
2018-06-22T01:31:08.811Z,83.60
2018-06-22T01:36:11.438Z,83.70
2018-06-22T01:41:14.130Z,84.50
2018-06-22T01:46:16.855Z,84.00
2018-06-22T01:56:22.187Z,85.80
2018-06-22T02:01:24.794Z,85.70
2018-06-22T02:06:27.412Z,87.30
2018-06-22T02:11:30.055Z,88.70
2018-06-22T02:16:32.662Z,89.60
2018-06-22T02:21:35.282Z,90.30
2018-06-22T02:26:37.906Z,90.70
2018-06-22T02:31:40.534Z,90.90
2018-06-22T02:36:43.189Z,91.20
2018-06-22T02:41:45.780Z,91.80
2018-06-22T02:46:48.427Z,92.70
2018-06-22T02:51:51.043Z,93.10
2018-06-22T02:56:53.683Z,93.20
2018-06-22T03:01:56.314Z,93.40
2018-06-22T03:06:58.902Z,94.10
2018-06-22T03:12:01.549Z,94.90
2018-06-22T03:17:04.457Z,95.40
2018-06-22T03:22:07.084Z,95.80
2018-06-22T03:27:09.727Z,96.30
2018-06-22T03:32:12.559Z,96.10
2018-06-22T03:37:15.198Z,96.30
2018-06-22T03:42:17.809Z,95.90
2018-06-22T03:47:20.612Z,96.10
2018-06-22T03:52:23.439Z,96.00
2018-06-22T03:57:26.071Z,96.00
2018-06-22T04:02:28.947Z,95.90
2018-06-22T04:12:34.325Z,95.30
2018-06-22T04:17:42.599Z,95.60
2018-06-22T04:22:45.337Z,95.50
2018-06-22T04:27:48.982Z,94.80
2018-06-22T04:32:51.859Z,94.90
2018-06-22T04:37:54.483Z,94.00
2018-06-22T04:47:59.774Z,92.50
2018-06-22T04:53:02.387Z,90.10
2018-06-22T05:03:09.666Z,88.80
2018-06-22T05:08:15.602Z,88.90
2018-06-22T05:13:18.324Z,88.20
2018-06-22T05:18:20.961Z,88.10
2018-06-22T05:23:23.738Z,88.30
2018-06-22T05:28:26.331Z,87.10
2018-06-22T05:33:28.947Z,86.60
2018-06-22T05:38:31.832Z,87.10
2018-06-22T05:43:34.771Z,86.50
2018-06-22T05:48:37.704Z,85.70
2018-06-22T05:53:40.443Z,86.70
2018-06-22T06:03:45.682Z,85.70
2018-06-22T06:08:48.506Z,83.60
2018-06-22T06:13:51.211Z,80.00
2018-06-22T06:18:53.962Z,80.70
2018-06-22T06:23:56.644Z,79.00
2018-06-22T06:28:59.970Z,77.80
2018-06-22T06:34:02.759Z,77.00
2018-06-22T06:39:06.776Z,76.50
2018-06-22T06:44:09.411Z,73.80
2018-06-22T06:49:12.035Z,70.50
2018-06-22T06:54:14.650Z,71.20
2018-06-22T06:59:17.255Z,71.10
2018-06-22T07:04:19.837Z,69.00
2018-06-22T07:09:22.438Z,68.70
2018-06-22T07:14:25.267Z,68.40
2018-06-22T07:19:27.983Z,67.80
2018-06-22T07:24:30.595Z,64.00
2018-06-22T07:29:33.198Z,64.20
2018-06-22T07:34:35.972Z,62.30
2018-06-22T07:39:38.672Z,62.00
2018-06-22T07:44:41.370Z,61.50
2018-06-22T07:49:44.158Z,58.30
2018-06-22T07:54:47.631Z,59.30
2018-06-22T07:59:50.308Z,56.90
2018-06-22T08:04:52.935Z,57.20
2018-06-22T08:09:55.590Z,56.10
2018-06-22T08:14:58.239Z,56.50
2018-06-22T08:20:00.863Z,54.00
2018-06-22T08:25:03.627Z,52.40
2018-06-22T08:30:06.915Z,53.00
2018-06-22T08:35:09.555Z,51.30
2018-06-22T08:40:12.222Z,48.60
2018-06-22T08:45:14.834Z,49.10
2018-06-22T08:50:17.594Z,50.90
2018-06-22T08:55:20.274Z,54.00
2018-06-22T09:00:23.249Z,54.90
2018-06-22T09:05:26.049Z,54.20
2018-06-22T09:10:28.789Z,53.50
2018-06-22T09:15:31.814Z,54.50
2018-06-22T09:20:34.447Z,52.60
2018-06-22T09:25:37.193Z,51.40
2018-06-22T09:30:40.174Z,50.30
2018-06-22T09:35:42.999Z,45.80
2018-06-22T09:40:45.653Z,46.50
2018-06-22T09:45:49.320Z,46.80
2018-06-22T09:50:52.031Z,45.00
2018-06-22T09:55:54.913Z,45.00
2018-06-22T10:00:57.730Z,44.20
2018-06-22T10:11:03.672Z,47.40
2018-06-22T10:16:06.439Z,47.60
2018-06-22T10:21:09.397Z,42.90
2018-06-22T10:26:12.055Z,40.00
2018-06-22T10:31:14.626Z,39.60
2018-06-22T10:36:17.239Z,41.10
2018-06-22T10:41:19.952Z,40.50
2018-06-22T10:46:22.603Z,39.10
2018-06-22T10:51:25.225Z,35.80
2018-06-22T10:56:27.874Z,40.20
2018-06-22T11:01:31.188Z,41.90
2018-06-22T11:06:34.070Z,41.40
2018-06-22T11:11:36.740Z,41.60
2018-06-22T11:16:39.688Z,43.10
2018-06-22T11:21:42.374Z,37.50
2018-06-22T11:26:45.221Z,32.60
2018-06-22T11:31:47.915Z,35.80
2018-06-22T11:36:50.562Z,32.90
2018-06-22T11:41:54.054Z,33.20
2018-06-22T11:46:56.761Z,35.70
2018-06-22T11:51:59.411Z,40.20
2018-06-22T11:57:02.040Z,41.90
2018-06-22T12:02:05.230Z,40.00
2018-06-22T12:07:07.867Z,39.60
2018-06-22T12:12:10.534Z,38.40
2018-06-22T12:17:13.211Z,35.50
2018-06-22T12:22:15.975Z,35.30
2018-06-22T12:27:18.607Z,38.00
2018-06-22T12:32:21.235Z,39.70
2018-06-22T12:37:23.922Z,42.50
2018-06-22T12:42:26.671Z,40.70
2018-06-22T12:47:30.016Z,41.60
2018-06-22T12:52:32.635Z,40.60
2018-06-22T13:02:37.882Z,43.10
2018-06-22T13:07:41.789Z,44.10
2018-06-22T13:12:44.522Z,43.10
2018-06-22T13:17:47.163Z,41.70
2018-06-22T13:22:49.827Z,38.30
2018-06-22T13:27:52.666Z,35.50
2018-06-22T13:32:55.358Z,38.20
2018-06-22T13:37:57.985Z,36.90
2018-06-22T13:43:00.681Z,34.80
2018-06-22T13:48:03.384Z,29.50
2018-06-22T13:53:06.686Z,27.30
2018-06-22T13:58:09.391Z,29.80
2018-06-22T14:03:13.165Z,28.10
2018-06-22T14:08:15.831Z,30.50
2018-06-22T14:13:19.149Z,34.70
2018-06-22T14:18:21.820Z,28.30
2018-06-22T14:23:26.019Z,26.10
2018-06-22T14:28:28.731Z,27.00
2018-06-22T14:33:31.417Z,33.50
2018-06-22T14:38:34.327Z,37.60
2018-06-22T14:43:37.046Z,41.10
2018-06-22T14:48:39.835Z,42.20
2018-06-22T14:53:48.283Z,36.60
2018-06-22T14:58:56.643Z,30.60
2018-06-22T15:04:05.194Z,31.20
2018-06-22T15:09:09.131Z,32.10
2018-06-22T15:14:11.886Z,31.90
2018-06-22T15:19:14.573Z,36.40
2018-06-22T15:24:17.317Z,35.10
2018-06-22T15:29:19.962Z,38.60
2018-06-22T15:34:28.424Z,38.50
2018-06-22T15:39:36.913Z,38.10
2018-06-22T15:44:45.431Z,32.60
2018-06-22T15:49:53.717Z,33.90
2018-06-22T15:55:04.986Z,31.30
2018-06-22T16:00:10.987Z,28.50
2018-06-22T16:05:16.694Z,27.40
2018-06-22T16:10:19.679Z,26.20
2018-06-22T16:15:28.127Z,26.70
2018-06-22T16:20:36.651Z,24.10
2018-06-22T16:25:45.087Z,22.50
2018-06-22T16:30:47.772Z,22.30
2018-06-22T16:35:50.423Z,21.50
2018-06-22T16:40:53.129Z,23.40
2018-06-22T16:45:55.818Z,24.60
2018-06-22T16:50:58.459Z,29.70
2018-06-22T16:56:01.176Z,28.00
2018-06-22T17:01:04.036Z,31.40
2018-06-22T17:06:07.602Z,28.40
2018-06-22T17:11:15.866Z,25.80
2018-06-22T17:16:24.347Z,25.30
2018-06-22T17:21:26.992Z,25.50
2018-06-22T17:26:29.675Z,27.70
2018-06-22T17:31:33.001Z,31.40
2018-06-22T17:36:35.782Z,37.30
2018-06-22T17:41:38.473Z,37.30
2018-06-22T17:46:41.225Z,38.50
2018-06-22T17:51:43.908Z,39.20
2018-06-22T17:56:46.651Z,41.80
2018-06-22T18:01:54.909Z,44.10
2018-06-22T18:07:03.394Z,46.40
2018-06-22T18:12:11.691Z,48.30
2018-06-22T18:17:14.373Z,49.20
2018-06-22T18:22:17.007Z,49.40
2018-06-22T18:27:19.687Z,50.80
2018-06-22T18:32:22.465Z,50.60
2018-06-22T18:37:25.280Z,51.20
2018-06-22T18:42:27.919Z,51.60
2018-06-22T18:47:30.858Z,52.90
2018-06-22T18:52:39.439Z,53.60
2018-06-22T18:57:47.656Z,54.60
2018-06-22T19:02:55.905Z,56.10
2018-06-22T19:07:58.601Z,56.60
2018-06-22T19:13:01.578Z,57.00
2018-06-22T19:18:04.435Z,58.60
2018-06-22T19:23:07.180Z,58.40
2018-06-22T19:28:09.909Z,59.10
2018-06-22T19:33:12.571Z,60.80
2018-06-22T19:38:15.290Z,61.20
2018-06-22T19:43:23.694Z,61.90
2018-06-22T19:48:32.302Z,62.70
2018-06-22T19:53:40.683Z,64.10
2018-06-22T19:58:43.375Z,63.40
2018-06-22T20:03:46.013Z,63.80
2018-06-22T20:08:49.115Z,65.50
2018-06-22T20:13:51.870Z,66.10
2018-06-22T20:18:54.550Z,66.90
2018-06-22T20:23:57.324Z,68.10
2018-06-22T20:29:00.017Z,73.20
2018-06-22T20:34:08.501Z,80.40
2018-06-22T20:39:16.824Z,83.50
2018-06-22T20:44:25.124Z,86.20
2018-06-22T20:49:34.392Z,88.60
2018-06-22T20:54:37.295Z,90.60
2018-06-22T20:59:39.969Z,91.20
2018-06-22T21:04:42.660Z,91.70
2018-06-22T21:09:45.339Z,92.40
2018-06-22T21:14:48.023Z,92.90
2018-06-22T21:19:50.772Z,93.50
2018-06-22T21:24:53.746Z,93.80
2018-06-22T21:35:10.661Z,95.10
2018-06-22T21:40:13.416Z,95.20
2018-06-22T21:45:16.090Z,95.30
2018-06-22T21:50:18.806Z,94.90
2018-06-22T21:55:21.483Z,95.20
2018-06-22T22:00:28.920Z,94.40
2018-06-22T22:05:31.728Z,94.00
2018-06-22T22:10:40.187Z,93.60
2018-06-22T22:15:42.932Z,93.50
2018-06-22T22:20:45.742Z,93.80
2018-06-22T22:25:48.509Z,93.40
2018-06-22T22:30:52.058Z,93.50
2018-06-22T22:35:54.954Z,93.60
2018-06-22T22:40:57.627Z,93.90
2018-06-22T22:46:00.434Z,94.20
2018-06-22T22:51:03.241Z,93.80
2018-06-22T22:56:05.890Z,93.80
2018-06-22T23:06:11.211Z,94.00
2018-06-22T23:11:13.818Z,94.40
2018-06-22T23:16:17.298Z,94.40
2018-06-22T23:21:19.991Z,94.30
2018-06-22T23:26:23.054Z,94.20
2018-06-22T23:36:28.323Z,94.30
2018-06-22T23:41:30.955Z,94.80
2018-06-22T23:46:33.598Z,95.00
2018-06-22T23:51:36.234Z,95.40
2018-06-22T23:56:38.838Z,95.80
